sensor_id;sensor_type;location;lat;lon;timestamp;P1;durP1;ratioP1;P2;durP2;ratioP2
10096;SDS011;5087;42.662;23.466;2022-09-09T00:00:13;4.30;;;4.20;;
10096;SDS011;5087;42.662;23.466;2022-09-09T00:02:43;3.90;;;3.90;;
10096;SDS011;5087;42.662;23.466;2022-09-09T00:05:19;3.80;;;3.80;;
10096;SDS011;5087;42.662;23.466;2022-09-09T00:07:55;4.20;;;4.10;;
10096;SDS011;5087;42.662;23.466;2022-09-09T00:10:28;3.70;;;3.70;;
10096;SDS011;5087;42.662;23.466;2022-09-09T00:12:58;4.20;;;4.10;;
10096;SDS011;5087;42.662;23.466;2022-09-09T00:15:36;3.80;;;3.80;;
10096;SDS011;5087;42.662;23.466;2022-09-09T00:18:12;4.10;;;4.00;;
10096;SDS011;5087;42.662;23.466;2022-09-09T00:20:47;3.40;;;3.40;;
10096;SDS011;5087;42.662;23.466;2022-09-09T00:23:24;3.20;;;3.20;;
10096;SDS011;5087;42.662;23.466;2022-09-09T00:26:47;3.10;;;3.10;;
10096;SDS011;5087;42.662;23.466;2022-09-09T00:29:20;3.20;;;3.20;;
10096;SDS011;5087;42.662;23.466;2022-09-09T00:31:57;3.30;;;3.30;;
10096;SDS011;5087;42.662;23.466;2022-09-09T00:34:31;3.70;;;3.70;;
10096;SDS011;5087;42.662;23.466;2022-09-09T00:37:00;3.50;;;3.50;;
10096;SDS011;5087;42.662;23.466;2022-09-09T00:39:31;3.20;;;3.20;;
10096;SDS011;5087;42.662;23.466;2022-09-09T00:42:04;3.30;;;3.30;;
10096;SDS011;5087;42.662;23.466;2022-09-09T00:44:45;3.40;;;3.40;;
10096;SDS011;5087;42.662;23.466;2022-09-09T00:47:34;3.30;;;3.30;;
10096;SDS011;5087;42.662;23.466;2022-09-09T00:50:14;3.27;;;3.27;;
10096;SDS011;5087;42.662;23.466;2022-09-09T00:52:56;3.30;;;3.30;;
10096;SDS011;5087;42.662;23.466;2022-09-09T00:55:33;3.40;;;3.40;;
10096;SDS011;5087;42.662;23.466;2022-09-09T00:58:09;3.00;;;3.00;;
10096;SDS011;5087;42.662;23.466;2022-09-09T01:00:39;2.57;;;2.57;;
10096;SDS011;5087;42.662;23.466;2022-09-09T01:03:17;2.60;;;2.60;;
10096;SDS011;5087;42.662;23.466;2022-09-09T01:05:51;2.50;;;2.50;;
10096;SDS011;5087;42.662;23.466;2022-09-09T01:08:33;2.20;;;2.20;;
10096;SDS011;5087;42.662;23.466;2022-09-09T01:11:30;2.00;;;2.00;;
10096;SDS011;5087;42.662;23.466;2022-09-09T01:14:05;2.00;;;2.00;;
10096;SDS011;5087;42.662;23.466;2022-09-09T01:16:41;1.50;;;1.50;;
10096;SDS011;5087;42.662;23.466;2022-09-09T01:19:12;1.70;;;1.70;;
10096;SDS011;5087;42.662;23.466;2022-09-09T01:21:47;1.60;;;1.60;;
10096;SDS011;5087;42.662;23.466;2022-09-09T01:24:24;1.57;;;1.57;;
10096;SDS011;5087;42.662;23.466;2022-09-09T01:27:22;1.50;;;1.50;;
10096;SDS011;5087;42.662;23.466;2022-09-09T01:29:51;1.57;;;1.57;;
10096;SDS011;5087;42.662;23.466;2022-09-09T01:32:37;1.50;;;1.50;;
10096;SDS011;5087;42.662;23.466;2022-09-09T01:35:09;1.50;;;1.50;;
10096;SDS011;5087;42.662;23.466;2022-09-09T01:37:42;1.50;;;1.50;;
10096;SDS011;5087;42.662;23.466;2022-09-09T01:40:09;1.40;;;1.40;;
10096;SDS011;5087;42.662;23.466;2022-09-09T01:42:38;1.60;;;1.60;;
10096;SDS011;5087;42.662;23.466;2022-09-09T01:45:06;1.40;;;1.40;;
10096;SDS011;5087;42.662;23.466;2022-09-09T01:47:35;1.50;;;1.50;;
10096;SDS011;5087;42.662;23.466;2022-09-09T01:50:35;1.80;;;1.80;;
10096;SDS011;5087;42.662;23.466;2022-09-09T01:53:03;1.70;;;1.70;;
10096;SDS011;5087;42.662;23.466;2022-09-09T01:55:33;1.80;;;1.80;;
10096;SDS011;5087;42.662;23.466;2022-09-09T01:58:15;1.80;;;1.80;;
10096;SDS011;5087;42.662;23.466;2022-09-09T02:00:56;1.70;;;1.70;;
10096;SDS011;5087;42.662;23.466;2022-09-09T02:03:34;2.00;;;2.00;;
10096;SDS011;5087;42.662;23.466;2022-09-09T02:06:13;1.90;;;1.90;;
10096;SDS011;5087;42.662;23.466;2022-09-09T02:08:57;1.80;;;1.80;;
10096;SDS011;5087;42.662;23.466;2022-09-09T02:11:27;1.90;;;1.90;;
10096;SDS011;5087;42.662;23.466;2022-09-09T02:14:10;2.10;;;2.10;;
10096;SDS011;5087;42.662;23.466;2022-09-09T02:16:44;2.27;;;2.27;;
10096;SDS011;5087;42.662;23.466;2022-09-09T02:19:19;1.90;;;1.90;;
10096;SDS011;5087;42.662;23.466;2022-09-09T02:22:16;2.00;;;2.00;;
10096;SDS011;5087;42.662;23.466;2022-09-09T02:24:46;2.53;;;2.53;;
10096;SDS011;5087;42.662;23.466;2022-09-09T02:27:21;2.00;;;2.00;;
10096;SDS011;5087;42.662;23.466;2022-09-09T02:29:51;2.00;;;2.00;;
10096;SDS011;5087;42.662;23.466;2022-09-09T02:32:34;2.20;;;2.20;;
10096;SDS011;5087;42.662;23.466;2022-09-09T02:35:08;2.40;;;2.40;;
10096;SDS011;5087;42.662;23.466;2022-09-09T02:37:41;2.30;;;2.30;;
10096;SDS011;5087;42.662;23.466;2022-09-09T02:40:12;2.30;;;2.30;;
10096;SDS011;5087;42.662;23.466;2022-09-09T02:42:47;2.20;;;2.20;;
10096;SDS011;5087;42.662;23.466;2022-09-09T02:45:20;2.30;;;2.30;;
10096;SDS011;5087;42.662;23.466;2022-09-09T02:47:56;2.40;;;2.40;;
10096;SDS011;5087;42.662;23.466;2022-09-09T02:50:38;2.10;;;2.10;;
10096;SDS011;5087;42.662;23.466;2022-09-09T02:53:12;2.00;;;2.00;;
10096;SDS011;5087;42.662;23.466;2022-09-09T02:55:46;1.90;;;1.90;;
10096;SDS011;5087;42.662;23.466;2022-09-09T02:58:20;2.00;;;2.00;;
10096;SDS011;5087;42.662;23.466;2022-09-09T03:01:01;2.00;;;2.00;;
10096;SDS011;5087;42.662;23.466;2022-09-09T03:03:29;1.90;;;1.90;;
10096;SDS011;5087;42.662;23.466;2022-09-09T03:05:59;2.00;;;2.00;;
10096;SDS011;5087;42.662;23.466;2022-09-09T03:08:27;2.40;;;2.40;;
10096;SDS011;5087;42.662;23.466;2022-09-09T03:10:57;1.90;;;1.90;;
10096;SDS011;5087;42.662;23.466;2022-09-09T03:13:28;2.10;;;2.10;;
10096;SDS011;5087;42.662;23.466;2022-09-09T03:15:55;2.10;;;2.10;;
10096;SDS011;5087;42.662;23.466;2022-09-09T03:18:25;2.00;;;2.00;;
10096;SDS011;5087;42.662;23.466;2022-09-09T03:20:54;1.90;;;1.90;;
10096;SDS011;5087;42.662;23.466;2022-09-09T03:23:21;1.80;;;1.80;;
10096;SDS011;5087;42.662;23.466;2022-09-09T03:25:50;1.70;;;1.70;;
10096;SDS011;5087;42.662;23.466;2022-09-09T03:28:24;1.80;;;1.80;;
10096;SDS011;5087;42.662;23.466;2022-09-09T03:31:00;1.80;;;1.80;;
10096;SDS011;5087;42.662;23.466;2022-09-09T03:33:35;2.50;;;2.43;;
10096;SDS011;5087;42.662;23.466;2022-09-09T03:36:03;1.50;;;1.50;;
10096;SDS011;5087;42.662;23.466;2022-09-09T03:38:31;1.40;;;1.40;;
10096;SDS011;5087;42.662;23.466;2022-09-09T03:40:59;1.40;;;1.40;;
10096;SDS011;5087;42.662;23.466;2022-09-09T03:43:28;1.40;;;1.40;;
10096;SDS011;5087;42.662;23.466;2022-09-09T03:45:56;1.40;;;1.40;;
10096;SDS011;5087;42.662;23.466;2022-09-09T03:48:26;1.60;;;1.60;;
10096;SDS011;5087;42.662;23.466;2022-09-09T03:50:56;1.50;;;1.50;;
10096;SDS011;5087;42.662;23.466;2022-09-09T03:53:26;1.50;;;1.50;;
10096;SDS011;5087;42.662;23.466;2022-09-09T03:55:56;1.50;;;1.50;;
10096;SDS011;5087;42.662;23.466;2022-09-09T03:58:26;1.70;;;1.70;;
10096;SDS011;5087;42.662;23.466;2022-09-09T04:01:00;1.50;;;1.50;;
10096;SDS011;5087;42.662;23.466;2022-09-09T04:03:29;1.50;;;1.50;;
10096;SDS011;5087;42.662;23.466;2022-09-09T04:05:59;1.40;;;1.40;;
10096;SDS011;5087;42.662;23.466;2022-09-09T04:08:30;1.40;;;1.40;;
10096;SDS011;5087;42.662;23.466;2022-09-09T04:10:59;1.40;;;1.40;;
10096;SDS011;5087;42.662;23.466;2022-09-09T04:13:27;1.50;;;1.50;;
10096;SDS011;5087;42.662;23.466;2022-09-09T04:16:11;1.60;;;1.60;;
10096;SDS011;5087;42.662;23.466;2022-09-09T04:18:41;1.70;;;1.70;;
10096;SDS011;5087;42.662;23.466;2022-09-09T04:21:11;1.57;;;1.57;;
10096;SDS011;5087;42.662;23.466;2022-09-09T04:23:40;1.70;;;1.70;;
10096;SDS011;5087;42.662;23.466;2022-09-09T04:26:07;1.90;;;1.90;;
10096;SDS011;5087;42.662;23.466;2022-09-09T04:28:36;2.10;;;2.10;;
10096;SDS011;5087;42.662;23.466;2022-09-09T04:31:16;2.10;;;2.10;;
10096;SDS011;5087;42.662;23.466;2022-09-09T04:33:47;2.00;;;2.00;;
10096;SDS011;5087;42.662;23.466;2022-09-09T04:36:17;2.20;;;2.20;;
10096;SDS011;5087;42.662;23.466;2022-09-09T04:38:49;2.20;;;2.20;;
10096;SDS011;5087;42.662;23.466;2022-09-09T04:41:17;2.60;;;2.60;;
10096;SDS011;5087;42.662;23.466;2022-09-09T04:43:47;4.00;;;3.90;;
10096;SDS011;5087;42.662;23.466;2022-09-09T04:46:16;2.80;;;2.80;;
10096;SDS011;5087;42.662;23.466;2022-09-09T04:48:44;3.10;;;3.10;;
10096;SDS011;5087;42.662;23.466;2022-09-09T04:51:12;3.23;;;3.23;;
10096;SDS011;5087;42.662;23.466;2022-09-09T04:53:43;2.90;;;2.90;;
10096;SDS011;5087;42.662;23.466;2022-09-09T04:56:13;3.20;;;3.20;;
10096;SDS011;5087;42.662;23.466;2022-09-09T04:58:49;3.23;;;3.23;;
10096;SDS011;5087;42.662;23.466;2022-09-09T05:01:22;3.77;;;3.77;;
10096;SDS011;5087;42.662;23.466;2022-09-09T05:03:52;3.40;;;3.40;;
10096;SDS011;5087;42.662;23.466;2022-09-09T05:06:22;3.27;;;3.27;;
10096;SDS011;5087;42.662;23.466;2022-09-09T05:08:56;3.00;;;3.00;;
10096;SDS011;5087;42.662;23.466;2022-09-09T05:11:30;3.27;;;3.27;;
10096;SDS011;5087;42.662;23.466;2022-09-09T05:14:19;3.20;;;3.20;;
10096;SDS011;5087;42.662;23.466;2022-09-09T05:16:47;3.07;;;3.07;;
10096;SDS011;5087;42.662;23.466;2022-09-09T05:19:17;3.70;;;3.70;;
10096;SDS011;5087;42.662;23.466;2022-09-09T05:21:49;3.70;;;3.70;;
10096;SDS011;5087;42.662;23.466;2022-09-09T05:24:22;3.53;;;3.53;;
10096;SDS011;5087;42.662;23.466;2022-09-09T05:26:52;3.50;;;3.50;;
10096;SDS011;5087;42.662;23.466;2022-09-09T05:29:19;3.90;;;3.90;;
10096;SDS011;5087;42.662;23.466;2022-09-09T05:31:47;3.90;;;3.90;;
10096;SDS011;5087;42.662;23.466;2022-09-09T05:34:21;3.60;;;3.60;;
10096;SDS011;5087;42.662;23.466;2022-09-09T05:36:49;4.40;;;4.30;;
10096;SDS011;5087;42.662;23.466;2022-09-09T05:39:25;3.90;;;3.90;;
10096;SDS011;5087;42.662;23.466;2022-09-09T05:41:53;3.90;;;3.90;;
10096;SDS011;5087;42.662;23.466;2022-09-09T05:44:21;3.40;;;3.40;;
10096;SDS011;5087;42.662;23.466;2022-09-09T05:46:49;3.97;;;3.90;;
10096;SDS011;5087;42.662;23.466;2022-09-09T05:49:16;4.70;;;4.60;;
10096;SDS011;5087;42.662;23.466;2022-09-09T05:51:44;4.87;;;4.77;;
10096;SDS011;5087;42.662;23.466;2022-09-09T05:54:13;4.73;;;4.63;;
10096;SDS011;5087;42.662;23.466;2022-09-09T05:56:47;4.90;;;4.80;;
10096;SDS011;5087;42.662;23.466;2022-09-09T05:59:18;5.33;;;5.23;;
10096;SDS011;5087;42.662;23.466;2022-09-09T06:01:46;6.13;;;6.03;;
10096;SDS011;5087;42.662;23.466;2022-09-09T06:04:28;5.77;;;5.67;;
10096;SDS011;5087;42.662;23.466;2022-09-09T06:07:01;5.60;;;5.50;;
10096;SDS011;5087;42.662;23.466;2022-09-09T06:09:29;5.40;;;5.30;;
10096;SDS011;5087;42.662;23.466;2022-09-09T06:15:00;5.27;;;5.17;;
10096;SDS011;5087;42.662;23.466;2022-09-09T06:17:28;4.80;;;4.70;;
10096;SDS011;5087;42.662;23.466;2022-09-09T06:19:56;4.60;;;4.50;;
10096;SDS011;5087;42.662;23.466;2022-09-09T06:22:23;4.30;;;4.20;;
10096;SDS011;5087;42.662;23.466;2022-09-09T06:24:51;4.50;;;4.40;;
10096;SDS011;5087;42.662;23.466;2022-09-09T06:27:18;4.60;;;4.50;;
10096;SDS011;5087;42.662;23.466;2022-09-09T06:29:48;4.20;;;4.10;;
10096;SDS011;5087;42.662;23.466;2022-09-09T06:32:15;4.33;;;4.23;;
10096;SDS011;5087;42.662;23.466;2022-09-09T06:34:43;4.30;;;4.20;;
10096;SDS011;5087;42.662;23.466;2022-09-09T06:37:11;4.20;;;4.10;;
10096;SDS011;5087;42.662;23.466;2022-09-09T06:39:44;4.20;;;4.10;;
10096;SDS011;5087;42.662;23.466;2022-09-09T06:42:12;4.20;;;4.10;;
10096;SDS011;5087;42.662;23.466;2022-09-09T06:45:11;4.20;;;4.10;;
10096;SDS011;5087;42.662;23.466;2022-09-09T06:47:47;4.40;;;4.30;;
10096;SDS011;5087;42.662;23.466;2022-09-09T06:50:15;4.20;;;4.10;;
10096;SDS011;5087;42.662;23.466;2022-09-09T06:52:45;4.70;;;4.60;;
10096;SDS011;5087;42.662;23.466;2022-09-09T06:55:15;4.60;;;4.50;;
10096;SDS011;5087;42.662;23.466;2022-09-09T06:57:43;4.90;;;4.80;;
10096;SDS011;5087;42.662;23.466;2022-09-09T07:00:17;5.00;;;4.90;;
10096;SDS011;5087;42.662;23.466;2022-09-09T07:02:44;4.70;;;4.60;;
10096;SDS011;5087;42.662;23.466;2022-09-09T07:05:13;4.97;;;4.87;;
10096;SDS011;5087;42.662;23.466;2022-09-09T07:07:42;4.70;;;4.60;;
10096;SDS011;5087;42.662;23.466;2022-09-09T07:10:11;4.40;;;4.30;;
10096;SDS011;5087;42.662;23.466;2022-09-09T07:12:38;4.53;;;4.43;;
10096;SDS011;5087;42.662;23.466;2022-09-09T07:15:09;4.30;;;4.20;;
10096;SDS011;5087;42.662;23.466;2022-09-09T07:17:41;3.90;;;3.90;;
10096;SDS011;5087;42.662;23.466;2022-09-09T07:20:09;3.83;;;3.83;;
10096;SDS011;5087;42.662;23.466;2022-09-09T07:22:37;4.60;;;4.50;;
10096;SDS011;5087;42.662;23.466;2022-09-09T07:25:04;3.90;;;3.90;;
10096;SDS011;5087;42.662;23.466;2022-09-09T07:27:34;4.20;;;4.10;;
10096;SDS011;5087;42.662;23.466;2022-09-09T07:30:04;3.83;;;3.83;;
10096;SDS011;5087;42.662;23.466;2022-09-09T07:32:32;3.57;;;3.57;;
10096;SDS011;5087;42.662;23.466;2022-09-09T07:35:01;3.30;;;3.30;;
10096;SDS011;5087;42.662;23.466;2022-09-09T07:37:29;3.27;;;3.27;;
10096;SDS011;5087;42.662;23.466;2022-09-09T07:39:56;3.47;;;3.47;;
10096;SDS011;5087;42.662;23.466;2022-09-09T07:42:24;3.90;;;3.90;;
10096;SDS011;5087;42.662;23.466;2022-09-09T07:44:54;3.50;;;3.50;;
10096;SDS011;5087;42.662;23.466;2022-09-09T07:47:23;3.80;;;3.80;;
10096;SDS011;5087;42.662;23.466;2022-09-09T07:49:51;3.33;;;3.33;;
10096;SDS011;5087;42.662;23.466;2022-09-09T07:52:25;3.10;;;3.10;;
10096;SDS011;5087;42.662;23.466;2022-09-09T07:54:57;3.20;;;3.20;;
10096;SDS011;5087;42.662;23.466;2022-09-09T07:57:25;3.27;;;3.27;;
10096;SDS011;5087;42.662;23.466;2022-09-09T07:59:53;3.10;;;3.10;;
10096;SDS011;5087;42.662;23.466;2022-09-09T08:02:22;3.20;;;3.20;;
10096;SDS011;5087;42.662;23.466;2022-09-09T08:04:51;2.70;;;2.70;;
10096;SDS011;5087;42.662;23.466;2022-09-09T08:07:19;2.90;;;2.90;;
10096;SDS011;5087;42.662;23.466;2022-09-09T08:09:53;3.20;;;3.20;;
10096;SDS011;5087;42.662;23.466;2022-09-09T08:12:25;3.30;;;3.30;;
10096;SDS011;5087;42.662;23.466;2022-09-09T08:14:53;3.17;;;3.17;;
10096;SDS011;5087;42.662;23.466;2022-09-09T08:17:21;3.17;;;3.17;;
10096;SDS011;5087;42.662;23.466;2022-09-09T08:19:48;3.10;;;3.10;;
10096;SDS011;5087;42.662;23.466;2022-09-09T08:22:20;3.50;;;3.50;;
10096;SDS011;5087;42.662;23.466;2022-09-09T08:24:49;3.10;;;3.10;;
10096;SDS011;5087;42.662;23.466;2022-09-09T08:27:18;3.00;;;3.00;;
10096;SDS011;5087;42.662;23.466;2022-09-09T08:29:45;3.33;;;3.33;;
10096;SDS011;5087;42.662;23.466;2022-09-09T08:32:13;3.30;;;3.30;;
10096;SDS011;5087;42.662;23.466;2022-09-09T08:34:40;3.30;;;3.30;;
10096;SDS011;5087;42.662;23.466;2022-09-09T08:37:13;3.20;;;3.20;;
10096;SDS011;5087;42.662;23.466;2022-09-09T08:39:42;3.00;;;3.00;;
10096;SDS011;5087;42.662;23.466;2022-09-09T08:42:19;2.83;;;2.83;;
10096;SDS011;5087;42.662;23.466;2022-09-09T08:45:11;2.90;;;2.90;;
10096;SDS011;5087;42.662;23.466;2022-09-09T08:47:49;2.60;;;2.60;;
10096;SDS011;5087;42.662;23.466;2022-09-09T08:50:38;2.50;;;2.50;;
10096;SDS011;5087;42.662;23.466;2022-09-09T08:53:17;2.70;;;2.70;;
10096;SDS011;5087;42.662;23.466;2022-09-09T08:55:50;2.60;;;2.60;;
10096;SDS011;5087;42.662;23.466;2022-09-09T08:58:31;2.80;;;2.80;;
10096;SDS011;5087;42.662;23.466;2022-09-09T09:01:10;2.83;;;2.83;;
10096;SDS011;5087;42.662;23.466;2022-09-09T09:03:55;2.80;;;2.80;;
10096;SDS011;5087;42.662;23.466;2022-09-09T09:06:34;2.80;;;2.80;;
10096;SDS011;5087;42.662;23.466;2022-09-09T09:09:17;2.60;;;2.60;;
10096;SDS011;5087;42.662;23.466;2022-09-09T09:11:54;2.63;;;2.63;;
10096;SDS011;5087;42.662;23.466;2022-09-09T09:14:30;2.73;;;2.73;;
10096;SDS011;5087;42.662;23.466;2022-09-09T09:17:04;2.57;;;2.57;;
10096;SDS011;5087;42.662;23.466;2022-09-09T09:19:34;2.50;;;2.50;;
10096;SDS011;5087;42.662;23.466;2022-09-09T09:22:06;2.50;;;2.50;;
10096;SDS011;5087;42.662;23.466;2022-09-09T09:24:44;2.50;;;2.50;;
10096;SDS011;5087;42.662;23.466;2022-09-09T09:27:22;2.70;;;2.70;;
10096;SDS011;5087;42.662;23.466;2022-09-09T09:29:59;2.90;;;2.90;;
10096;SDS011;5087;42.662;23.466;2022-09-09T09:32:30;2.90;;;2.90;;
10096;SDS011;5087;42.662;23.466;2022-09-09T09:35:03;2.80;;;2.80;;
10096;SDS011;5087;42.662;23.466;2022-09-09T09:37:37;2.80;;;2.80;;
10096;SDS011;5087;42.662;23.466;2022-09-09T09:40:11;2.90;;;2.90;;
10096;SDS011;5087;42.662;23.466;2022-09-09T09:42:47;2.80;;;2.80;;
10096;SDS011;5087;42.662;23.466;2022-09-09T09:45:18;2.90;;;2.90;;
10096;SDS011;5087;42.662;23.466;2022-09-09T09:47:59;2.70;;;2.70;;
10096;SDS011;5087;42.662;23.466;2022-09-09T09:50:29;2.60;;;2.60;;
10096;SDS011;5087;42.662;23.466;2022-09-09T09:52:58;2.60;;;2.60;;
10096;SDS011;5087;42.662;23.466;2022-09-09T09:55:31;2.73;;;2.73;;
10096;SDS011;5087;42.662;23.466;2022-09-09T09:58:03;2.80;;;2.80;;
10096;SDS011;5087;42.662;23.466;2022-09-09T10:00:32;2.60;;;2.60;;
10096;SDS011;5087;42.662;23.466;2022-09-09T10:03:12;2.60;;;2.60;;
10096;SDS011;5087;42.662;23.466;2022-09-09T10:05:49;2.90;;;2.90;;
10096;SDS011;5087;42.662;23.466;2022-09-09T10:08:16;4.03;;;3.90;;
10096;SDS011;5087;42.662;23.466;2022-09-09T10:10:48;2.80;;;2.80;;
10096;SDS011;5087;42.662;23.466;2022-09-09T10:13:23;2.90;;;2.90;;
10096;SDS011;5087;42.662;23.466;2022-09-09T10:15:59;2.70;;;2.70;;
10096;SDS011;5087;42.662;23.466;2022-09-09T10:18:45;2.90;;;2.90;;
10096;SDS011;5087;42.662;23.466;2022-09-09T10:21:32;2.70;;;2.70;;
10096;SDS011;5087;42.662;23.466;2022-09-09T10:24:25;3.00;;;3.00;;
10096;SDS011;5087;42.662;23.466;2022-09-09T10:27:17;2.77;;;2.77;;
10096;SDS011;5087;42.662;23.466;2022-09-09T10:29:55;2.50;;;2.50;;
10096;SDS011;5087;42.662;23.466;2022-09-09T10:32:40;2.57;;;2.57;;
10096;SDS011;5087;42.662;23.466;2022-09-09T10:35:17;3.20;;;3.20;;
10096;SDS011;5087;42.662;23.466;2022-09-09T10:38:08;3.00;;;3.00;;
10096;SDS011;5087;42.662;23.466;2022-09-09T10:40:44;3.30;;;3.30;;
10096;SDS011;5087;42.662;23.466;2022-09-09T10:43:39;3.10;;;3.10;;
10096;SDS011;5087;42.662;23.466;2022-09-09T10:46:20;3.27;;;3.27;;
10096;SDS011;5087;42.662;23.466;2022-09-09T10:48:59;3.00;;;3.00;;
10096;SDS011;5087;42.662;23.466;2022-09-09T10:51:36;3.00;;;3.00;;
10096;SDS011;5087;42.662;23.466;2022-09-09T10:54:23;2.73;;;2.73;;
10096;SDS011;5087;42.662;23.466;2022-09-09T10:56:58;3.00;;;3.00;;
10096;SDS011;5087;42.662;23.466;2022-09-09T10:59:31;3.10;;;3.10;;
10096;SDS011;5087;42.662;23.466;2022-09-09T11:02:05;3.00;;;3.00;;
10096;SDS011;5087;42.662;23.466;2022-09-09T11:04:44;3.20;;;3.20;;
10096;SDS011;5087;42.662;23.466;2022-09-09T11:07:17;3.43;;;3.43;;
10096;SDS011;5087;42.662;23.466;2022-09-09T11:09:53;3.50;;;3.50;;
10096;SDS011;5087;42.662;23.466;2022-09-09T11:12:29;3.80;;;3.80;;
10096;SDS011;5087;42.662;23.466;2022-09-09T11:14:59;3.97;;;3.93;;
10096;SDS011;5087;42.662;23.466;2022-09-09T11:17:33;3.30;;;3.30;;
10096;SDS011;5087;42.662;23.466;2022-09-09T11:20:12;3.63;;;3.63;;
10096;SDS011;5087;42.662;23.466;2022-09-09T11:22:43;3.90;;;3.90;;
10096;SDS011;5087;42.662;23.466;2022-09-09T11:25:15;3.73;;;3.73;;
10096;SDS011;5087;42.662;23.466;2022-09-09T11:27:50;3.50;;;3.50;;
10096;SDS011;5087;42.662;23.466;2022-09-09T11:30:29;3.57;;;3.57;;
10096;SDS011;5087;42.662;23.466;2022-09-09T11:36:27;3.40;;;3.40;;
10096;SDS011;5087;42.662;23.466;2022-09-09T11:39:34;3.20;;;3.20;;
10096;SDS011;5087;42.662;23.466;2022-09-09T11:42:15;3.10;;;3.10;;
10096;SDS011;5087;42.662;23.466;2022-09-09T11:44:45;3.33;;;3.33;;
10096;SDS011;5087;42.662;23.466;2022-09-09T11:47:16;3.50;;;3.50;;
10096;SDS011;5087;42.662;23.466;2022-09-09T11:49:49;3.33;;;3.33;;
10096;SDS011;5087;42.662;23.466;2022-09-09T11:52:22;3.20;;;3.20;;
10096;SDS011;5087;42.662;23.466;2022-09-09T11:54:54;3.20;;;3.20;;
10096;SDS011;5087;42.662;23.466;2022-09-09T11:57:35;3.30;;;3.30;;
10096;SDS011;5087;42.662;23.466;2022-09-09T12:00:03;3.40;;;3.40;;
10096;SDS011;5087;42.662;23.466;2022-09-09T12:02:37;3.40;;;3.40;;
10096;SDS011;5087;42.662;23.466;2022-09-09T12:05:16;3.30;;;3.30;;
10096;SDS011;5087;42.662;23.466;2022-09-09T12:07:48;3.20;;;3.20;;
10096;SDS011;5087;42.662;23.466;2022-09-09T12:10:21;3.20;;;3.20;;
10096;SDS011;5087;42.662;23.466;2022-09-09T12:12:54;3.30;;;3.30;;
10096;SDS011;5087;42.662;23.466;2022-09-09T12:15:23;3.00;;;3.00;;
10096;SDS011;5087;42.662;23.466;2022-09-09T12:17:54;3.00;;;3.00;;
10096;SDS011;5087;42.662;23.466;2022-09-09T12:20:32;3.37;;;3.37;;
10096;SDS011;5087;42.662;23.466;2022-09-09T12:25:58;3.10;;;3.10;;
10096;SDS011;5087;42.662;23.466;2022-09-09T12:28:43;3.40;;;3.40;;
10096;SDS011;5087;42.662;23.466;2022-09-09T12:31:20;3.70;;;3.70;;
10096;SDS011;5087;42.662;23.466;2022-09-09T12:33:53;3.17;;;3.17;;
10096;SDS011;5087;42.662;23.466;2022-09-09T12:36:21;3.00;;;3.00;;
10096;SDS011;5087;42.662;23.466;2022-09-09T12:38:55;3.20;;;3.20;;
10096;SDS011;5087;42.662;23.466;2022-09-09T12:41:26;3.30;;;3.30;;
10096;SDS011;5087;42.662;23.466;2022-09-09T12:44:03;3.50;;;3.50;;
10096;SDS011;5087;42.662;23.466;2022-09-09T12:46:33;3.77;;;3.67;;
10096;SDS011;5087;42.662;23.466;2022-09-09T12:49:04;3.20;;;3.20;;
10096;SDS011;5087;42.662;23.466;2022-09-09T12:51:32;3.40;;;3.40;;
10096;SDS011;5087;42.662;23.466;2022-09-09T12:54:01;3.20;;;3.20;;
10096;SDS011;5087;42.662;23.466;2022-09-09T12:56:30;3.30;;;3.30;;
10096;SDS011;5087;42.662;23.466;2022-09-09T12:58:59;3.20;;;3.20;;
10096;SDS011;5087;42.662;23.466;2022-09-09T13:01:28;2.90;;;2.90;;
10096;SDS011;5087;42.662;23.466;2022-09-09T13:03:57;2.90;;;2.90;;
10096;SDS011;5087;42.662;23.466;2022-09-09T13:06:25;3.00;;;3.00;;
10096;SDS011;5087;42.662;23.466;2022-09-09T13:08:55;2.70;;;2.70;;
10096;SDS011;5087;42.662;23.466;2022-09-09T13:11:26;3.20;;;3.20;;
10096;SDS011;5087;42.662;23.466;2022-09-09T13:13:58;3.17;;;3.17;;
10096;SDS011;5087;42.662;23.466;2022-09-09T13:16:26;3.10;;;3.10;;
10096;SDS011;5087;42.662;23.466;2022-09-09T13:18:57;2.90;;;2.90;;
10096;SDS011;5087;42.662;23.466;2022-09-09T13:21:33;3.10;;;3.10;;
10096;SDS011;5087;42.662;23.466;2022-09-09T13:24:03;3.00;;;3.00;;
10096;SDS011;5087;42.662;23.466;2022-09-09T13:26:34;2.90;;;2.90;;
10096;SDS011;5087;42.662;23.466;2022-09-09T13:29:08;3.00;;;3.00;;
10096;SDS011;5087;42.662;23.466;2022-09-09T13:31:44;3.60;;;3.60;;
10096;SDS011;5087;42.662;23.466;2022-09-09T13:34:12;3.60;;;3.60;;
10096;SDS011;5087;42.662;23.466;2022-09-09T13:36:40;3.53;;;3.53;;
10096;SDS011;5087;42.662;23.466;2022-09-09T13:39:14;3.20;;;3.20;;
10096;SDS011;5087;42.662;23.466;2022-09-09T13:41:45;3.40;;;3.40;;
10096;SDS011;5087;42.662;23.466;2022-09-09T13:44:17;3.30;;;3.30;;
10096;SDS011;5087;42.662;23.466;2022-09-09T13:46:58;3.10;;;3.10;;
10096;SDS011;5087;42.662;23.466;2022-09-09T13:49:28;3.30;;;3.30;;
10096;SDS011;5087;42.662;23.466;2022-09-09T13:52:08;3.40;;;3.40;;
10096;SDS011;5087;42.662;23.466;2022-09-09T13:54:37;3.40;;;3.40;;
10096;SDS011;5087;42.662;23.466;2022-09-09T13:57:11;3.20;;;3.20;;
10096;SDS011;5087;42.662;23.466;2022-09-09T13:59:43;2.90;;;2.90;;
10096;SDS011;5087;42.662;23.466;2022-09-09T14:02:10;3.30;;;3.30;;
10096;SDS011;5087;42.662;23.466;2022-09-09T14:04:37;3.03;;;3.03;;
10096;SDS011;5087;42.662;23.466;2022-09-09T14:07:08;2.90;;;2.90;;
10096;SDS011;5087;42.662;23.466;2022-09-09T14:09:38;3.20;;;3.20;;
10096;SDS011;5087;42.662;23.466;2022-09-09T14:12:08;3.00;;;3.00;;
10096;SDS011;5087;42.662;23.466;2022-09-09T14:14:36;3.20;;;3.20;;
10096;SDS011;5087;42.662;23.466;2022-09-09T14:17:03;3.30;;;3.30;;
10096;SDS011;5087;42.662;23.466;2022-09-09T14:19:30;3.40;;;3.40;;
10096;SDS011;5087;42.662;23.466;2022-09-09T14:21:58;3.30;;;3.30;;
10096;SDS011;5087;42.662;23.466;2022-09-09T14:24:25;3.07;;;3.07;;
10096;SDS011;5087;42.662;23.466;2022-09-09T14:26:53;3.20;;;3.20;;
10096;SDS011;5087;42.662;23.466;2022-09-09T14:29:21;3.20;;;3.20;;
10096;SDS011;5087;42.662;23.466;2022-09-09T14:31:50;2.90;;;2.90;;
10096;SDS011;5087;42.662;23.466;2022-09-09T14:34:17;3.00;;;3.00;;
10096;SDS011;5087;42.662;23.466;2022-09-09T14:36:44;3.13;;;3.13;;
10096;SDS011;5087;42.662;23.466;2022-09-09T14:39:12;3.30;;;3.30;;
10096;SDS011;5087;42.662;23.466;2022-09-09T14:41:39;3.00;;;3.00;;
10096;SDS011;5087;42.662;23.466;2022-09-09T14:44:06;2.90;;;2.90;;
10096;SDS011;5087;42.662;23.466;2022-09-09T14:46:35;2.80;;;2.80;;
10096;SDS011;5087;42.662;23.466;2022-09-09T14:49:02;2.80;;;2.80;;
10096;SDS011;5087;42.662;23.466;2022-09-09T14:51:29;2.73;;;2.73;;
10096;SDS011;5087;42.662;23.466;2022-09-09T14:53:57;2.90;;;2.90;;
10096;SDS011;5087;42.662;23.466;2022-09-09T14:56:28;2.90;;;2.90;;
10096;SDS011;5087;42.662;23.466;2022-09-09T14:58:57;2.90;;;2.90;;
10096;SDS011;5087;42.662;23.466;2022-09-09T15:01:26;2.90;;;2.90;;
10096;SDS011;5087;42.662;23.466;2022-09-09T15:03:59;2.90;;;2.90;;
10096;SDS011;5087;42.662;23.466;2022-09-09T15:06:29;2.70;;;2.70;;
10096;SDS011;5087;42.662;23.466;2022-09-09T15:08:58;2.80;;;2.80;;
10096;SDS011;5087;42.662;23.466;2022-09-09T15:11:27;2.87;;;2.87;;
10096;SDS011;5087;42.662;23.466;2022-09-09T15:13:56;2.70;;;2.70;;
10096;SDS011;5087;42.662;23.466;2022-09-09T15:16:24;2.47;;;2.47;;
10096;SDS011;5087;42.662;23.466;2022-09-09T15:18:52;2.50;;;2.50;;
10096;SDS011;5087;42.662;23.466;2022-09-09T15:21:24;2.50;;;2.50;;
10096;SDS011;5087;42.662;23.466;2022-09-09T15:23:55;2.60;;;2.60;;
10096;SDS011;5087;42.662;23.466;2022-09-09T15:26:22;2.37;;;2.37;;
10096;SDS011;5087;42.662;23.466;2022-09-09T15:28:50;2.60;;;2.60;;
10096;SDS011;5087;42.662;23.466;2022-09-09T15:31:18;2.60;;;2.60;;